createdAt,value
2018-09-15T00:01:26.490Z,99.90
2018-09-15T00:03:54.623Z,99.90
2018-09-15T00:06:22.767Z,99.90
2018-09-15T00:08:50.920Z,99.90
2018-09-15T00:11:19.094Z,99.90
2018-09-15T00:13:47.579Z,99.90
2018-09-15T00:16:15.777Z,99.90
2018-09-15T00:18:43.984Z,99.90
2018-09-15T00:21:12.125Z,99.90
2018-09-15T00:23:40.271Z,99.90
2018-09-15T00:26:08.411Z,99.90
2018-09-15T00:28:36.561Z,99.90
2018-09-15T00:31:04.778Z,99.90
2018-09-15T00:33:32.916Z,99.90
2018-09-15T00:36:01.093Z,99.90
2018-09-15T00:38:29.252Z,99.90
2018-09-15T00:40:57.405Z,99.90
2018-09-15T00:43:25.738Z,99.90
2018-09-15T00:45:53.887Z,99.90
2018-09-15T00:48:22.056Z,99.90
2018-09-15T00:50:50.210Z,99.90
2018-09-15T00:53:18.359Z,99.90
2018-09-15T00:55:46.554Z,99.90
2018-09-15T00:58:14.767Z,99.90
2018-09-15T01:00:42.913Z,99.90
2018-09-15T01:03:11.090Z,99.90
2018-09-15T01:05:39.222Z,99.90
2018-09-15T01:08:07.355Z,99.90
2018-09-15T01:10:35.513Z,99.90
2018-09-15T01:13:03.659Z,99.90
2018-09-15T01:15:31.802Z,99.90
2018-09-15T01:17:59.939Z,99.90
2018-09-15T01:20:28.078Z,99.90
2018-09-15T01:22:56.248Z,99.90
2018-09-15T01:25:24.404Z,99.90
2018-09-15T01:27:52.571Z,99.90
2018-09-15T01:30:20.722Z,99.90
2018-09-15T01:32:48.955Z,99.90
2018-09-15T01:35:17.127Z,99.90
2018-09-15T01:37:45.323Z,99.90
2018-09-15T01:40:13.473Z,99.90
2018-09-15T01:42:41.644Z,99.90
2018-09-15T01:45:09.798Z,99.90
2018-09-15T01:47:37.949Z,99.90
2018-09-15T01:50:06.099Z,99.90
2018-09-15T01:52:34.287Z,99.90
2018-09-15T01:55:02.453Z,99.90
2018-09-15T01:57:30.694Z,99.90
2018-09-15T01:59:58.759Z,99.90
2018-09-15T02:02:26.951Z,99.90
2018-09-15T02:04:55.243Z,99.90
2018-09-15T02:07:23.396Z,99.90
2018-09-15T02:09:51.561Z,99.90
2018-09-15T02:12:19.700Z,99.90
2018-09-15T02:14:47.871Z,99.90
2018-09-15T02:17:16.019Z,99.90
2018-09-15T02:19:44.191Z,99.90
2018-09-15T02:22:12.366Z,99.90
2018-09-15T02:24:40.531Z,99.90
2018-09-15T02:27:08.711Z,99.90
2018-09-15T02:29:36.834Z,99.90
2018-09-15T02:32:04.990Z,99.90
2018-09-15T02:34:33.151Z,99.90
2018-09-15T02:37:01.395Z,99.90
2018-09-15T02:39:29.540Z,99.90
2018-09-15T02:41:57.692Z,99.90
2018-09-15T02:44:25.839Z,99.90
2018-09-15T02:46:54.030Z,99.90
2018-09-15T02:49:22.192Z,99.90
2018-09-15T02:51:50.359Z,99.90
2018-09-15T02:54:18.517Z,99.90
2018-09-15T02:56:46.656Z,99.90
2018-09-15T02:59:14.790Z,99.90
2018-09-15T03:01:42.935Z,99.90
2018-09-15T03:04:11.153Z,99.90
2018-09-15T03:06:39.313Z,99.90
2018-09-15T03:09:09.131Z,99.90
2018-09-15T03:11:37.329Z,99.90
2018-09-15T03:14:05.477Z,99.90
2018-09-15T03:16:33.618Z,99.90
2018-09-15T03:19:01.800Z,99.90
2018-09-15T03:21:29.935Z,99.90
2018-09-15T03:23:58.111Z,99.90
2018-09-15T03:26:26.251Z,99.90
2018-09-15T03:28:54.426Z,99.90
2018-09-15T03:31:22.589Z,99.90
2018-09-15T03:33:50.730Z,99.90
2018-09-15T03:36:18.887Z,99.90
2018-09-15T03:38:47.011Z,99.90
2018-09-15T03:41:15.166Z,99.90
2018-09-15T03:43:43.305Z,99.90
2018-09-15T03:46:11.448Z,99.90
2018-09-15T03:48:39.588Z,99.90
2018-09-15T03:51:07.786Z,99.90
2018-09-15T03:53:35.920Z,99.90
2018-09-15T03:56:04.086Z,99.90
2018-09-15T03:58:32.227Z,99.90
2018-09-15T04:01:00.372Z,99.90
2018-09-15T04:03:28.498Z,99.90
2018-09-15T04:05:56.641Z,99.90
2018-09-15T04:08:24.823Z,99.90
2018-09-15T04:10:52.967Z,99.90
2018-09-15T04:13:21.112Z,99.90
2018-09-15T04:15:49.290Z,99.90
2018-09-15T04:18:17.591Z,99.90
2018-09-15T04:20:47.534Z,99.90
2018-09-15T04:23:16.114Z,99.90
2018-09-15T04:25:44.870Z,99.90
2018-09-15T04:28:13.009Z,99.90
2018-09-15T04:30:41.659Z,99.90
2018-09-15T04:33:10.138Z,99.90
2018-09-15T04:35:38.530Z,99.90
2018-09-15T04:38:06.801Z,99.90
2018-09-15T04:40:34.949Z,99.90
2018-09-15T04:43:03.107Z,99.90
2018-09-15T04:45:31.316Z,99.90
2018-09-15T04:47:59.429Z,99.90
2018-09-15T04:50:27.585Z,99.90
2018-09-15T04:52:55.731Z,99.90
2018-09-15T04:55:23.862Z,99.90
2018-09-15T04:57:51.995Z,99.90
2018-09-15T05:00:20.143Z,99.90
2018-09-15T05:02:48.376Z,99.90
2018-09-15T05:05:16.499Z,99.90
2018-09-15T05:07:44.627Z,99.90
2018-09-15T05:10:12.810Z,99.90
2018-09-15T05:12:41.041Z,99.90
2018-09-15T05:15:09.136Z,99.90
2018-09-15T05:17:37.286Z,99.90
2018-09-15T05:20:05.529Z,99.90
2018-09-15T05:22:33.668Z,99.90
2018-09-15T05:25:01.816Z,99.90
2018-09-15T05:27:29.951Z,99.90
2018-09-15T05:29:58.091Z,99.90
2018-09-15T05:32:26.219Z,99.90
2018-09-15T05:34:54.363Z,99.90
2018-09-15T05:37:22.512Z,99.90
2018-09-15T05:39:50.727Z,99.90
2018-09-15T05:42:18.872Z,99.90
2018-09-15T05:44:46.989Z,99.90
2018-09-15T05:47:15.131Z,99.90
2018-09-15T05:49:43.325Z,99.90
2018-09-15T05:52:11.411Z,99.90
2018-09-15T05:54:39.538Z,99.90
2018-09-15T05:57:07.694Z,99.90
2018-09-15T05:59:35.844Z,99.90
2018-09-15T06:02:03.992Z,99.90
2018-09-15T06:04:38.942Z,99.90
2018-09-15T06:07:07.079Z,99.90
2018-09-15T06:09:35.215Z,99.90
2018-09-15T06:12:03.355Z,99.90
2018-09-15T06:14:31.493Z,99.90
2018-09-15T06:16:59.623Z,99.90
2018-09-15T06:19:27.747Z,99.90
2018-09-15T06:21:55.883Z,99.90
2018-09-15T06:24:24.305Z,99.90
2018-09-15T06:26:52.444Z,99.90
2018-09-15T06:29:20.589Z,99.90
2018-09-15T06:31:48.804Z,99.90
2018-09-15T06:34:18.228Z,99.90
2018-09-15T06:36:46.394Z,99.90
2018-09-15T06:39:14.557Z,99.90
2018-09-15T06:41:42.690Z,99.90
2018-09-15T06:44:10.816Z,99.90
2018-09-15T06:46:38.965Z,99.90
2018-09-15T06:49:07.143Z,99.90
2018-09-15T06:51:35.339Z,99.90
2018-09-15T06:54:03.484Z,99.90
2018-09-15T06:56:31.638Z,99.90
2018-09-15T06:59:00.603Z,99.90
2018-09-15T07:01:28.731Z,99.90
2018-09-15T07:03:56.862Z,99.90
2018-09-15T07:06:25.017Z,99.90
2018-09-15T07:08:53.152Z,99.90
2018-09-15T07:11:21.319Z,99.90
2018-09-15T07:13:49.470Z,99.90
2018-09-15T07:16:17.603Z,99.90
2018-09-15T07:18:45.723Z,99.90
2018-09-15T07:21:13.893Z,99.90
2018-09-15T07:23:42.052Z,99.90
2018-09-15T07:26:10.162Z,99.90
2018-09-15T07:28:38.294Z,99.90
2018-09-15T07:31:19.918Z,99.90
2018-09-15T07:33:48.232Z,99.90
2018-09-15T07:36:16.403Z,99.30
2018-09-15T07:38:44.536Z,94.90
2018-09-15T07:41:12.662Z,92.20
2018-09-15T07:43:40.860Z,93.30
2018-09-15T07:46:09.012Z,93.20
2018-09-15T07:48:37.161Z,93.50
2018-09-15T07:51:05.468Z,93.00
2018-09-15T07:53:33.618Z,92.10
2018-09-15T07:56:01.770Z,93.40
2018-09-15T07:58:29.928Z,92.80
2018-09-15T08:00:58.051Z,93.60
2018-09-15T08:03:26.206Z,95.00
2018-09-15T08:05:54.380Z,99.90
2018-09-15T08:08:22.524Z,99.90
2018-09-15T08:10:50.706Z,99.90
2018-09-15T08:13:18.842Z,99.90
2018-09-15T08:15:46.985Z,99.90
2018-09-15T08:18:15.145Z,99.90
2018-09-15T08:20:43.288Z,99.90
2018-09-15T08:23:11.403Z,99.90
2018-09-15T08:25:39.542Z,99.90
2018-09-15T08:28:07.674Z,99.90
2018-09-15T08:30:35.827Z,99.90
2018-09-15T08:33:03.963Z,99.90
2018-09-15T08:35:32.144Z,99.90
2018-09-15T08:38:00.432Z,99.90
2018-09-15T08:40:28.551Z,99.90
2018-09-15T08:42:56.671Z,99.90
2018-09-15T08:45:24.782Z,99.90
2018-09-15T08:47:52.905Z,99.90
2018-09-15T08:50:21.067Z,99.90
2018-09-15T08:52:49.184Z,99.90
2018-09-15T08:55:17.307Z,99.90
2018-09-15T08:57:45.428Z,99.90
2018-09-15T09:00:13.567Z,99.90
2018-09-15T09:02:41.730Z,99.90
2018-09-15T09:05:09.888Z,99.90
2018-09-15T09:07:41.872Z,99.90
2018-09-15T09:10:10.027Z,99.90
2018-09-15T09:12:38.142Z,99.90
2018-09-15T09:15:06.267Z,99.90
2018-09-15T09:17:34.406Z,99.90
2018-09-15T09:20:04.718Z,97.90
2018-09-15T09:22:32.935Z,93.80
2018-09-15T09:25:01.047Z,93.20
2018-09-15T09:27:44.263Z,93.70
2018-09-15T09:30:13.987Z,92.60
2018-09-15T09:32:42.124Z,96.30
2018-09-15T09:35:10.256Z,96.00
2018-09-15T09:37:38.601Z,98.30
2018-09-15T09:40:06.815Z,99.90
2018-09-15T09:42:34.948Z,98.50
2018-09-15T09:45:03.082Z,97.10
2018-09-15T09:47:31.208Z,93.40
2018-09-15T09:49:59.339Z,85.90
2018-09-15T09:52:27.501Z,82.30
2018-09-15T09:54:55.662Z,81.10
2018-09-15T09:57:23.900Z,84.20
2018-09-15T09:59:52.044Z,90.10
2018-09-15T10:02:23.006Z,87.50
2018-09-15T10:04:51.371Z,86.40
2018-09-15T10:07:19.691Z,84.70
2018-09-15T10:09:47.867Z,86.60
2018-09-15T10:12:16.167Z,88.80
2018-09-15T10:14:44.322Z,90.80
2018-09-15T10:17:12.458Z,92.70
2018-09-15T10:19:40.592Z,93.90
2018-09-15T10:22:08.722Z,96.30
2018-09-15T10:24:36.871Z,97.70
2018-09-15T10:27:05.046Z,99.90
2018-09-15T10:29:33.188Z,99.90
2018-09-15T10:32:01.400Z,99.90
2018-09-15T10:34:29.467Z,99.90
2018-09-15T10:36:57.621Z,99.90
2018-09-15T10:39:25.794Z,99.90
2018-09-15T10:41:53.942Z,99.90
2018-09-15T10:44:22.087Z,99.90
2018-09-15T10:46:50.253Z,99.90
2018-09-15T10:49:18.463Z,99.90
2018-09-15T10:51:46.615Z,99.90
2018-09-15T10:54:14.751Z,99.90
2018-09-15T10:56:42.922Z,99.90
2018-09-15T10:59:11.070Z,99.90
2018-09-15T11:01:39.231Z,99.90
2018-09-15T11:04:07.431Z,99.90
2018-09-15T11:06:35.579Z,99.90
2018-09-15T11:09:05.095Z,99.90
2018-09-15T11:11:33.242Z,99.90
2018-09-15T11:14:01.379Z,99.90
2018-09-15T11:16:29.523Z,99.90
2018-09-15T11:18:57.707Z,99.90
2018-09-15T11:21:25.853Z,99.90
2018-09-15T11:23:54.824Z,99.90
2018-09-15T11:26:26.097Z,99.90
2018-09-15T11:28:54.354Z,99.90
2018-09-15T11:31:22.519Z,99.90
2018-09-15T11:33:50.634Z,99.90
2018-09-15T11:36:18.969Z,99.90
2018-09-15T11:38:47.095Z,99.90
2018-09-15T11:41:15.248Z,99.90
2018-09-15T11:43:43.401Z,99.90
2018-09-15T11:46:11.550Z,99.90
2018-09-15T11:48:39.685Z,99.90
2018-09-15T11:51:07.823Z,99.90
2018-09-15T11:53:35.969Z,98.50
2018-09-15T11:56:04.107Z,96.90
2018-09-15T11:58:32.248Z,97.20
2018-09-15T12:01:02.364Z,96.60
2018-09-15T12:03:30.484Z,98.50
2018-09-15T12:05:58.708Z,99.70
2018-09-15T12:08:26.891Z,99.90
2018-09-15T12:10:55.035Z,99.90
2018-09-15T12:13:23.190Z,99.90
2018-09-15T12:15:51.314Z,99.90
2018-09-15T12:18:19.460Z,99.90
2018-09-15T12:20:47.607Z,99.90
2018-09-15T12:23:15.746Z,99.90
2018-09-15T12:25:43.899Z,99.90
2018-09-15T12:28:12.043Z,99.90
2018-09-15T12:30:40.175Z,99.90
2018-09-15T12:33:08.339Z,99.90
2018-09-15T12:35:36.489Z,99.90
2018-09-15T12:38:04.630Z,99.90
2018-09-15T12:40:32.779Z,99.90
2018-09-15T12:43:00.918Z,98.90
2018-09-15T12:45:29.059Z,97.20
2018-09-15T12:47:57.204Z,95.00
2018-09-15T12:50:25.344Z,94.70
2018-09-15T12:52:53.487Z,93.10
2018-09-15T12:55:21.707Z,89.20
2018-09-15T12:57:49.944Z,90.10
2018-09-15T13:00:18.025Z,89.60
2018-09-15T13:02:46.196Z,90.60
2018-09-15T13:05:14.340Z,91.70
2018-09-15T13:07:42.463Z,91.50
2018-09-15T13:10:10.619Z,92.70
2018-09-15T13:12:38.772Z,92.30
2018-09-15T13:15:07.018Z,91.70
2018-09-15T13:17:35.172Z,92.00
2018-09-15T13:20:03.331Z,92.60
2018-09-15T13:22:35.678Z,94.00
2018-09-15T13:25:03.951Z,94.40
2018-09-15T13:27:32.075Z,95.00
2018-09-15T13:30:00.327Z,96.00
2018-09-15T13:32:28.442Z,96.70
2018-09-15T13:34:56.563Z,94.70
2018-09-15T13:37:24.711Z,93.20
2018-09-15T13:39:52.846Z,91.90
2018-09-15T13:42:20.990Z,83.80
2018-09-15T13:44:49.151Z,84.80
2018-09-15T13:47:17.432Z,85.50
2018-09-15T13:49:45.563Z,88.40
2018-09-15T13:52:13.782Z,83.10
2018-09-15T13:54:41.914Z,83.50
2018-09-15T13:57:10.068Z,80.50
2018-09-15T13:59:38.230Z,77.40
2018-09-15T14:02:06.388Z,79.60
2018-09-15T14:04:34.543Z,82.30
2018-09-15T14:07:02.682Z,79.80
2018-09-15T14:09:30.807Z,74.60
2018-09-15T14:11:59.018Z,74.20
2018-09-15T14:14:27.135Z,76.60
2018-09-15T14:16:55.276Z,74.50
2018-09-15T14:19:23.430Z,74.70
2018-09-15T14:21:51.684Z,76.70
2018-09-15T14:24:19.820Z,77.50
2018-09-15T14:26:47.996Z,77.00
2018-09-15T14:29:16.216Z,76.40
2018-09-15T14:31:44.352Z,76.40
2018-09-15T14:34:12.477Z,76.80
2018-09-15T14:36:40.627Z,77.20
2018-09-15T14:39:09.763Z,81.40
2018-09-15T14:41:37.943Z,81.40
2018-09-15T14:44:06.100Z,78.30
2018-09-15T14:46:34.258Z,76.40
2018-09-15T14:49:02.434Z,78.00
2018-09-15T14:51:30.590Z,77.60
2018-09-15T14:54:04.735Z,80.00
2018-09-15T14:56:32.904Z,78.70
2018-09-15T14:59:01.054Z,78.00
2018-09-15T15:01:29.241Z,76.80
2018-09-15T15:03:57.335Z,74.90
2018-09-15T15:06:25.463Z,74.60
2018-09-15T15:08:53.620Z,76.90
2018-09-15T15:11:21.759Z,76.20
2018-09-15T15:13:49.899Z,79.20
2018-09-15T15:16:18.048Z,80.70
2018-09-15T15:18:46.181Z,79.70
2018-09-15T15:21:14.323Z,81.20
2018-09-15T15:23:42.612Z,82.70
2018-09-15T15:26:10.811Z,80.60
2018-09-15T15:28:38.914Z,81.20
2018-09-15T15:31:07.026Z,82.40
2018-09-15T15:33:35.192Z,83.00
2018-09-15T15:36:03.350Z,80.60
2018-09-15T15:38:31.571Z,80.70
2018-09-15T15:40:59.902Z,80.90
2018-09-15T15:43:28.098Z,79.70
2018-09-15T15:45:56.228Z,80.10
2018-09-15T15:48:24.346Z,81.20
2018-09-15T15:50:52.491Z,81.90
2018-09-15T15:53:20.662Z,81.50
2018-09-15T15:55:48.841Z,81.40
2018-09-15T15:58:17.060Z,80.60
2018-09-15T16:00:45.077Z,80.70
2018-09-15T16:03:13.211Z,83.90
2018-09-15T16:05:41.349Z,82.40
2018-09-15T16:08:09.508Z,82.70
2018-09-15T16:10:37.643Z,83.00
2018-09-15T16:13:05.821Z,82.30
2018-09-15T16:15:34.081Z,84.60
2018-09-15T16:18:02.280Z,84.30
2018-09-15T16:20:30.415Z,83.80
2018-09-15T16:22:58.546Z,84.60
2018-09-15T16:28:20.285Z,85.90
2018-09-15T16:30:48.596Z,86.40
2018-09-15T16:33:16.727Z,89.50
2018-09-15T16:35:44.870Z,90.80
2018-09-15T16:38:13.018Z,91.60
2018-09-15T16:40:41.229Z,94.90
2018-09-15T16:43:09.310Z,95.50
2018-09-15T16:45:37.455Z,93.70
2018-09-15T16:48:05.815Z,93.80
2018-09-15T16:50:33.998Z,94.80
2018-09-15T16:53:02.159Z,96.50
2018-09-15T16:55:31.351Z,99.90
2018-09-15T16:57:59.491Z,99.90
2018-09-15T17:00:27.635Z,99.90
2018-09-15T17:02:55.788Z,99.90
2018-09-15T17:05:23.992Z,99.90
2018-09-15T17:07:52.150Z,99.90
2018-09-15T17:10:20.317Z,99.90
2018-09-15T17:12:48.458Z,99.90
2018-09-15T17:15:16.947Z,99.90
2018-09-15T17:17:45.108Z,99.90
2018-09-15T17:20:13.272Z,99.90
2018-09-15T17:22:41.406Z,99.90
2018-09-15T17:25:09.571Z,99.90
2018-09-15T17:27:37.703Z,99.90
2018-09-15T17:30:05.996Z,99.90
2018-09-15T17:32:34.143Z,99.90
2018-09-15T17:35:02.306Z,99.90
2018-09-15T17:37:32.666Z,99.90
2018-09-15T17:40:00.791Z,99.90
2018-09-15T17:42:28.927Z,99.90
2018-09-15T17:44:57.059Z,99.90
2018-09-15T17:47:25.206Z,99.90
2018-09-15T17:49:53.339Z,99.90
2018-09-15T17:52:21.502Z,99.90
2018-09-15T17:54:49.764Z,99.90
2018-09-15T17:57:17.763Z,99.90
2018-09-15T17:59:46.137Z,99.90
2018-09-15T18:02:18.357Z,99.90
2018-09-15T18:04:46.484Z,99.90
2018-09-15T18:07:14.603Z,99.90
2018-09-15T18:09:42.984Z,99.90
2018-09-15T18:12:11.119Z,99.90
2018-09-15T18:14:39.827Z,99.90
2018-09-15T18:17:08.002Z,99.90
2018-09-15T18:19:36.201Z,99.90
2018-09-15T18:22:04.366Z,99.90
2018-09-15T18:24:36.286Z,99.90
2018-09-15T18:27:05.502Z,99.90
2018-09-15T18:29:33.635Z,99.90
2018-09-15T18:32:03.799Z,99.90
2018-09-15T18:34:31.964Z,99.90
2018-09-15T18:37:04.142Z,99.90
2018-09-15T18:39:32.403Z,99.90
2018-09-15T18:42:00.539Z,99.90
2018-09-15T18:44:28.667Z,99.90
2018-09-15T18:46:56.815Z,99.90
2018-09-15T18:49:24.979Z,99.90
2018-09-15T18:51:53.121Z,99.90
2018-09-15T18:54:21.257Z,99.90
2018-09-15T18:56:49.406Z,99.90
2018-09-15T18:59:17.550Z,99.90
2018-09-15T19:01:45.691Z,99.90
2018-09-15T19:04:13.891Z,99.90
2018-09-15T19:06:42.031Z,99.90
2018-09-15T19:09:11.412Z,99.90
2018-09-15T19:11:40.075Z,99.90
2018-09-15T19:14:08.332Z,99.90
2018-09-15T19:16:36.483Z,99.90
2018-09-15T19:19:04.608Z,99.90
2018-09-15T19:21:32.795Z,99.90
2018-09-15T19:24:01.048Z,99.90
2018-09-15T19:26:29.275Z,99.90
2018-09-15T19:28:57.547Z,99.90
2018-09-15T19:31:26.888Z,99.90
2018-09-15T19:33:55.044Z,99.90
2018-09-15T19:36:23.203Z,99.90
2018-09-15T19:38:51.383Z,99.90
2018-09-15T19:41:19.637Z,99.90
2018-09-15T19:43:47.828Z,99.90
2018-09-15T19:46:16.018Z,99.90
2018-09-15T19:48:44.138Z,99.90
2018-09-15T19:51:12.301Z,99.90
2018-09-15T19:53:40.476Z,99.90
2018-09-15T19:56:08.620Z,99.90
2018-09-15T19:58:36.764Z,99.90
2018-09-15T20:01:04.910Z,99.90
2018-09-15T20:03:33.042Z,99.90
2018-09-15T20:06:01.222Z,99.90
2018-09-15T20:08:29.360Z,99.90
2018-09-15T20:10:57.568Z,99.90
2018-09-15T20:13:25.742Z,99.90
2018-09-15T20:15:52.906Z,99.90
2018-09-15T20:18:20.074Z,99.90
2018-09-15T20:20:47.242Z,99.90
2018-09-15T20:23:15.399Z,99.90
2018-09-15T20:25:43.650Z,99.90
2018-09-15T20:28:11.901Z,99.90
2018-09-15T20:30:40.035Z,99.90
2018-09-15T20:33:08.266Z,99.90
2018-09-15T20:35:36.443Z,99.90
2018-09-15T20:38:04.642Z,99.90
2018-09-15T20:40:32.851Z,99.90
2018-09-15T20:43:01.005Z,99.90
2018-09-15T20:45:29.170Z,99.90
2018-09-15T20:47:57.396Z,99.90
2018-09-15T20:50:25.558Z,99.90
2018-09-15T20:52:53.706Z,99.90
2018-09-15T20:55:21.862Z,99.90
2018-09-15T20:57:50.014Z,99.90
2018-09-15T21:00:18.160Z,99.90
2018-09-15T21:02:46.295Z,99.90
2018-09-15T21:05:23.157Z,99.90
2018-09-15T21:07:51.267Z,99.90
2018-09-15T21:10:19.382Z,99.90
2018-09-15T21:12:47.537Z,99.90
2018-09-15T21:15:15.646Z,99.90
2018-09-15T21:17:44.592Z,99.90
2018-09-15T21:20:12.731Z,99.90
2018-09-15T21:22:40.890Z,99.90
2018-09-15T21:25:09.022Z,99.90
2018-09-15T21:27:37.168Z,99.90
2018-09-15T21:30:05.650Z,99.90
2018-09-15T21:32:34.778Z,99.90
2018-09-15T21:35:02.940Z,99.90
2018-09-15T21:37:31.091Z,99.90
2018-09-15T21:39:59.188Z,99.90
2018-09-15T21:42:27.355Z,99.90
2018-09-15T21:44:56.571Z,99.90
2018-09-15T21:47:24.803Z,99.90
2018-09-15T21:49:53.064Z,99.90
2018-09-15T21:52:21.332Z,99.90
2018-09-15T21:54:49.461Z,99.90
2018-09-15T21:57:17.632Z,99.90
2018-09-15T21:59:45.778Z,99.90
2018-09-15T22:04:38.781Z,99.90
2018-09-15T22:07:07.371Z,99.90
2018-09-15T22:09:41.409Z,99.90
2018-09-15T22:12:10.983Z,99.90
2018-09-15T22:14:39.355Z,99.90
2018-09-15T22:17:07.854Z,99.90
2018-09-15T22:19:36.482Z,99.90
2018-09-15T22:22:05.005Z,99.90
2018-09-15T22:24:33.176Z,99.90
2018-09-15T22:27:01.512Z,99.90
2018-09-15T22:29:30.734Z,99.90
2018-09-15T22:31:58.939Z,99.90
2018-09-15T22:34:27.167Z,99.90
2018-09-15T22:36:55.365Z,99.90
2018-09-15T22:39:23.829Z,99.90
2018-09-15T22:41:52.353Z,99.90
2018-09-15T22:44:21.121Z,99.90
2018-09-15T22:46:49.811Z,99.90
2018-09-15T22:49:19.054Z,99.90
2018-09-15T22:51:48.106Z,99.90
2018-09-15T22:54:21.818Z,99.90
2018-09-15T22:56:50.351Z,99.90
2018-09-15T22:59:19.602Z,99.90
2018-09-15T23:01:49.588Z,99.90
2018-09-15T23:04:18.386Z,99.90
2018-09-15T23:06:47.579Z,99.90
2018-09-15T23:09:17.643Z,99.90
2018-09-15T23:11:48.029Z,99.90
2018-09-15T23:14:20.784Z,99.90
2018-09-15T23:16:49.751Z,99.90
2018-09-15T23:19:19.102Z,99.90
2018-09-15T23:21:48.131Z,99.90
2018-09-15T23:24:18.447Z,99.90
2018-09-15T23:26:47.866Z,99.90
2018-09-15T23:29:17.284Z,99.90
2018-09-15T23:31:46.801Z,99.90
2018-09-15T23:34:16.274Z,99.90
2018-09-15T23:36:45.822Z,99.90
2018-09-15T23:39:15.607Z,99.90
2018-09-15T23:41:44.710Z,99.90
2018-09-15T23:44:13.317Z,99.90
2018-09-15T23:46:44.268Z,99.90
2018-09-15T23:49:12.840Z,99.90
2018-09-15T23:51:41.226Z,99.90
2018-09-15T23:54:09.525Z,99.90
2018-09-15T23:56:38.457Z,99.90
2018-09-15T23:59:07.355Z,99.90
